createdAt,value
2016-08-16T00:00:04.518Z,24.25
2016-08-16T00:00:14.516Z,24.27
2016-08-16T00:00:24.514Z,24.22
2016-08-16T00:00:34.511Z,24.16
2016-08-16T00:00:44.517Z,24.25
2016-08-16T00:00:54.511Z,24.24
2016-08-16T00:01:04.505Z,24.24
2016-08-16T00:01:14.510Z,24.2
2016-08-16T00:01:24.507Z,24.22
2016-08-16T00:01:34.501Z,24.22
2016-08-16T00:01:44.499Z,24.27
2016-08-16T00:01:54.497Z,24.22
2016-08-16T00:02:04.493Z,24.27
2016-08-16T00:02:14.495Z,24.22
2016-08-16T00:02:24.492Z,24.24
2016-08-16T00:02:34.496Z,24.27
2016-08-16T00:02:44.492Z,24.22
2016-08-16T00:02:54.484Z,24.24
2016-08-16T00:03:04.483Z,24.16
2016-08-16T00:03:14.481Z,24.21
2016-08-16T00:03:24.481Z,24.27
2016-08-16T00:03:34.477Z,24.24
2016-08-16T00:03:44.478Z,24.24
2016-08-16T00:03:54.475Z,24.28
2016-08-16T00:04:04.472Z,24.2
2016-08-16T00:04:14.468Z,24.24
2016-08-16T00:04:24.468Z,24.21
2016-08-16T00:04:34.471Z,24.16
2016-08-16T00:04:44.469Z,24.24
2016-08-16T00:04:54.462Z,24.25
2016-08-16T00:05:04.462Z,24.31
2016-08-16T00:05:14.460Z,24.31
2016-08-16T00:05:24.469Z,24.24
2016-08-16T00:05:34.456Z,24.22
2016-08-16T00:05:44.457Z,24.21
2016-08-16T00:05:54.452Z,24.28
2016-08-16T00:06:04.450Z,24.3
2016-08-16T00:06:13.720Z,24.25
2016-08-16T00:06:24.452Z,24.22
2016-08-16T00:06:34.444Z,24.22
2016-08-16T00:06:44.442Z,24.3
2016-08-16T00:06:54.439Z,24.21
2016-08-16T00:07:04.441Z,24.24
2016-08-16T00:07:14.438Z,24.22
2016-08-16T00:07:24.436Z,24.22
2016-08-16T00:07:34.441Z,24.22
2016-08-16T00:07:44.438Z,24.21
2016-08-16T00:07:54.432Z,24.2
2016-08-16T00:08:04.429Z,24.3
2016-08-16T00:08:14.431Z,24.22
2016-08-16T00:08:24.425Z,24.22
2016-08-16T00:08:34.420Z,24.28
2016-08-16T00:08:44.420Z,24.34
2016-08-16T00:08:54.419Z,24.24
2016-08-16T00:09:03.691Z,24.31
2016-08-16T00:09:14.416Z,24.24
2016-08-16T00:09:24.411Z,24.24
2016-08-16T00:09:34.409Z,24.28
2016-08-16T00:09:44.408Z,24.28
2016-08-16T00:09:54.407Z,24.24
2016-08-16T00:10:04.406Z,24.21
2016-08-16T00:10:14.404Z,24.24
2016-08-16T00:10:24.402Z,24.28
2016-08-16T00:10:34.398Z,24.2
2016-08-16T00:10:44.398Z,24.28
2016-08-16T00:10:54.396Z,24.28
2016-08-16T00:11:04.392Z,24.18
2016-08-16T00:11:14.391Z,24.2
2016-08-16T00:11:24.392Z,24.22
2016-08-16T00:11:34.390Z,24.3
2016-08-16T00:11:44.387Z,24.28
2016-08-16T00:11:54.383Z,24.22
2016-08-16T00:12:04.380Z,24.21
2016-08-16T00:12:14.380Z,24.18
2016-08-16T00:12:24.380Z,24.15
2016-08-16T00:12:34.381Z,24.27
2016-08-16T00:12:44.375Z,24.28
2016-08-16T00:12:54.374Z,24.2
2016-08-16T00:13:04.372Z,24.3
2016-08-16T00:13:14.371Z,24.2
2016-08-16T00:13:24.369Z,24.18
2016-08-16T00:13:34.364Z,24.28
2016-08-16T00:13:44.361Z,24.22
2016-08-16T00:13:54.361Z,24.16
2016-08-16T00:14:04.358Z,24.18
2016-08-16T00:14:14.356Z,24.2
2016-08-16T00:14:24.357Z,24.24
2016-08-16T00:14:34.356Z,24.24
2016-08-16T00:14:44.354Z,24.27
2016-08-16T00:14:54.350Z,24.28
2016-08-16T00:15:04.347Z,24.25
2016-08-16T00:15:14.346Z,24.25
2016-08-16T00:15:24.348Z,24.3
2016-08-16T00:15:34.341Z,24.18
2016-08-16T00:15:44.343Z,24.2
2016-08-16T00:15:54.339Z,24.3
2016-08-16T00:16:03.608Z,24.25
2016-08-16T00:16:14.335Z,24.2
2016-08-16T00:16:24.335Z,24.18
2016-08-16T00:16:33.604Z,24.2
2016-08-16T00:16:44.328Z,24.3
2016-08-16T00:16:54.331Z,24.22
2016-08-16T00:17:04.324Z,24.18
2016-08-16T00:17:14.330Z,24.15
2016-08-16T00:17:24.328Z,24.22
2016-08-16T00:17:34.329Z,24.15
2016-08-16T00:17:44.319Z,24.25
2016-08-16T00:17:54.316Z,24.27
2016-08-16T00:18:04.315Z,24.2
2016-08-16T00:18:14.311Z,24.22
2016-08-16T00:18:24.312Z,24.21
2016-08-16T00:18:34.312Z,24.21
2016-08-16T00:18:44.307Z,24.22
2016-08-16T00:18:54.306Z,24.16
2016-08-16T00:19:04.302Z,24.18
2016-08-16T00:19:14.299Z,24.21
2016-08-16T00:19:24.301Z,24.25
2016-08-16T00:19:34.296Z,24.18
2016-08-16T00:19:44.298Z,24.13
2016-08-16T00:19:54.293Z,24.18
2016-08-16T00:20:04.295Z,24.15
2016-08-16T00:20:14.291Z,24.13
2016-08-16T00:20:24.289Z,24.13
2016-08-16T00:20:34.292Z,24.22
2016-08-16T00:20:44.285Z,24.16
2016-08-16T00:20:54.282Z,24.15
2016-08-16T00:21:04.288Z,24.13
2016-08-16T00:21:14.282Z,24.16
2016-08-16T00:21:24.278Z,24.21
2016-08-16T00:21:34.290Z,24.13
2016-08-16T00:21:44.271Z,24.18
2016-08-16T00:21:54.269Z,24.13
2016-08-16T00:22:04.267Z,24.22
2016-08-16T00:22:14.267Z,24.15
2016-08-16T00:22:24.265Z,24.21
2016-08-16T00:22:34.263Z,24.27
2016-08-16T00:22:44.262Z,24.16
2016-08-16T00:22:54.258Z,24.22
2016-08-16T00:23:04.264Z,24.2
2016-08-16T00:23:14.257Z,24.24
2016-08-16T00:23:24.256Z,24.12
2016-08-16T00:23:34.254Z,24.21
2016-08-16T00:23:44.252Z,24.13
2016-08-16T00:23:54.246Z,24.1
2016-08-16T00:24:04.246Z,24.21
2016-08-16T00:24:14.248Z,24.18
2016-08-16T00:24:24.241Z,24.18
2016-08-16T00:24:34.253Z,24.1
2016-08-16T00:24:44.237Z,24.15
2016-08-16T00:24:54.238Z,24.24
2016-08-16T00:25:04.238Z,24.13
2016-08-16T00:25:14.233Z,24.27
2016-08-16T00:25:24.234Z,24.21
2016-08-16T00:25:34.228Z,24.21
2016-08-16T00:25:44.229Z,24.16
2016-08-16T00:25:54.237Z,24.16
2016-08-16T00:26:04.228Z,24.13
2016-08-16T00:26:13.491Z,24.21
2016-08-16T00:26:24.221Z,24.16
2016-08-16T00:26:34.219Z,24.12
2016-08-16T00:26:44.216Z,24.13
2016-08-16T00:26:53.484Z,24.16
2016-08-16T00:27:04.215Z,24.22
2016-08-16T00:27:14.210Z,24.16
2016-08-16T00:27:24.210Z,24.16
2016-08-16T00:27:34.207Z,24.2
2016-08-16T00:27:44.205Z,24.24
2016-08-16T00:27:54.206Z,24.2
2016-08-16T00:28:04.203Z,24.22
2016-08-16T00:28:14.198Z,24.18
2016-08-16T00:28:24.197Z,24.18
2016-08-16T00:28:34.203Z,24.12
2016-08-16T00:28:44.194Z,24.16
2016-08-16T00:28:54.191Z,24.24
2016-08-16T00:29:04.192Z,24.18
2016-08-16T00:29:14.188Z,24.15
2016-08-16T00:29:24.189Z,24.21
2016-08-16T00:29:33.456Z,24.12
2016-08-16T00:29:44.187Z,24.15
2016-08-16T00:29:54.179Z,24.21
2016-08-16T00:30:04.179Z,24.12
2016-08-16T00:30:14.177Z,24.09
2016-08-16T00:30:24.178Z,24.08
2016-08-16T00:30:34.173Z,24.13
2016-08-16T00:30:44.171Z,24.13
2016-08-16T00:30:54.168Z,24.13
2016-08-16T00:31:04.166Z,24.1
2016-08-16T00:31:14.163Z,24.16
2016-08-16T00:31:24.163Z,24.16
2016-08-16T00:31:34.160Z,24.13
2016-08-16T00:31:44.169Z,24.22
2016-08-16T00:31:54.158Z,24.18
2016-08-16T00:32:04.155Z,24.15
2016-08-16T00:32:14.157Z,24.12
2016-08-16T00:32:24.152Z,24.13
2016-08-16T00:32:34.150Z,24.18
2016-08-16T00:32:44.150Z,24.13
2016-08-16T00:32:54.148Z,24.16
2016-08-16T00:33:04.145Z,24.13
2016-08-16T00:33:14.143Z,24.18
2016-08-16T00:33:24.143Z,24.15
2016-08-16T00:33:34.140Z,24.15
2016-08-16T00:33:44.137Z,24.18
2016-08-16T00:33:54.135Z,24.13
2016-08-16T00:34:04.133Z,24.1
2016-08-16T00:34:14.130Z,24.15
2016-08-16T00:34:24.131Z,24.09
2016-08-16T00:34:34.128Z,24.21
2016-08-16T00:34:44.130Z,24.09
2016-08-16T00:34:54.123Z,24.2
2016-08-16T00:35:04.121Z,24.16
2016-08-16T00:35:14.121Z,24.1
2016-08-16T00:35:24.120Z,24.13
2016-08-16T00:35:34.118Z,24.12
2016-08-16T00:35:44.114Z,24.2
2016-08-16T00:35:54.114Z,24.18
2016-08-16T00:36:04.111Z,24.2
2016-08-16T00:36:14.114Z,24.12
2016-08-16T00:36:24.106Z,24.16
2016-08-16T00:36:34.111Z,24.1
2016-08-16T00:36:44.106Z,24.2
2016-08-16T00:36:54.100Z,24.16
2016-08-16T00:37:04.100Z,24.13
2016-08-16T00:37:14.099Z,24.18
2016-08-16T00:37:24.097Z,24.1
2016-08-16T00:37:34.091Z,24.21
2016-08-16T00:37:44.092Z,24.18
2016-08-16T00:37:54.090Z,24.1
2016-08-16T00:38:04.095Z,24.1
2016-08-16T00:38:14.086Z,24.09
2016-08-16T00:38:24.086Z,24.12
2016-08-16T00:38:34.084Z,24.2
2016-08-16T00:38:44.081Z,24.12
2016-08-16T00:38:54.078Z,24.18
2016-08-16T00:39:04.075Z,24.06
2016-08-16T00:39:14.073Z,24.16
2016-08-16T00:39:24.073Z,24.12
2016-08-16T00:39:34.070Z,24.13
2016-08-16T00:39:44.069Z,24.15
2016-08-16T00:39:54.067Z,24.09
2016-08-16T00:40:04.066Z,24.1
2016-08-16T00:40:14.064Z,24.13
2016-08-16T00:40:24.063Z,24.15
2016-08-16T00:40:34.059Z,24.09
2016-08-16T00:40:44.059Z,24.13
2016-08-16T00:40:54.057Z,24.1
2016-08-16T00:41:04.062Z,24.2
2016-08-16T00:41:14.051Z,24.12
2016-08-16T00:41:24.051Z,24.15
2016-08-16T00:41:34.048Z,24.12
2016-08-16T00:41:44.048Z,24.09
2016-08-16T00:41:54.045Z,24.1
2016-08-16T00:42:04.040Z,24.16
2016-08-16T00:42:14.042Z,24.1
2016-08-16T00:42:24.044Z,24.1
2016-08-16T00:42:34.039Z,24.18
2016-08-16T00:42:44.039Z,24.08
2016-08-16T00:42:54.035Z,24.13
2016-08-16T00:43:04.029Z,24.15
2016-08-16T00:43:14.028Z,24.12
2016-08-16T00:43:24.026Z,24.12
2016-08-16T00:43:34.031Z,24.1
2016-08-16T00:43:44.023Z,24.13
2016-08-16T00:43:53.292Z,24.12
2016-08-16T00:44:04.022Z,24.12
2016-08-16T00:44:14.018Z,24.13
2016-08-16T00:44:24.015Z,24.18
2016-08-16T00:44:34.019Z,24.1
2016-08-16T00:44:44.011Z,24.1
2016-08-16T00:44:54.012Z,24.12
2016-08-16T00:45:04.007Z,24.13
2016-08-16T00:45:14.011Z,24.18
2016-08-16T00:45:24.005Z,24.12
2016-08-16T00:45:34.009Z,24.12
2016-08-16T00:45:44.012Z,24.12
2016-08-16T00:45:54.014Z,24.12
2016-08-16T00:46:03.999Z,24.1
2016-08-16T00:46:13.994Z,24.08
2016-08-16T00:46:24.003Z,24.2
2016-08-16T00:46:33.994Z,24.2
2016-08-16T00:46:43.990Z,24.15
2016-08-16T00:46:53.989Z,24.1
2016-08-16T00:47:03.990Z,24.1
2016-08-16T00:47:13.981Z,24.16
2016-08-16T00:47:23.980Z,24.09
2016-08-16T00:47:33.981Z,24.1
2016-08-16T00:47:43.978Z,24.18
2016-08-16T00:47:53.981Z,24.12
2016-08-16T00:48:03.973Z,24.08
2016-08-16T00:48:13.978Z,24.12
2016-08-16T00:48:23.977Z,24.08
2016-08-16T00:48:33.969Z,24.12
2016-08-16T00:48:43.976Z,24.1
2016-08-16T00:48:53.966Z,24.15
2016-08-16T00:49:03.971Z,24.12
2016-08-16T00:49:13.963Z,24.15
2016-08-16T00:49:23.229Z,24.12
2016-08-16T00:49:33.959Z,24.16
2016-08-16T00:49:43.957Z,24.12
2016-08-16T00:49:53.955Z,24.12
2016-08-16T00:50:03.958Z,24.15
2016-08-16T00:50:13.950Z,24.12
2016-08-16T00:50:23.948Z,24.12
2016-08-16T00:50:33.947Z,24.1
2016-08-16T00:50:43.942Z,24.18
2016-08-16T00:50:53.944Z,24.13
2016-08-16T00:51:03.942Z,24.12
2016-08-16T00:51:13.939Z,24.15
2016-08-16T00:51:23.936Z,24.13
2016-08-16T00:51:33.938Z,24.18
2016-08-16T00:51:43.931Z,24.1
2016-08-16T00:51:53.933Z,24.12
2016-08-16T00:52:03.932Z,24.1
2016-08-16T00:52:13.929Z,24.16
2016-08-16T00:52:23.925Z,24.22
2016-08-16T00:52:33.928Z,24.15
2016-08-16T00:52:43.922Z,24.15
2016-08-16T00:52:53.918Z,24.1
2016-08-16T00:53:03.917Z,24.13
2016-08-16T00:53:13.916Z,24.18
2016-08-16T00:53:23.916Z,24.16
2016-08-16T00:53:33.916Z,24.13
2016-08-16T00:53:43.915Z,24.13
2016-08-16T00:53:53.913Z,24.12
2016-08-16T00:54:03.906Z,24.21
2016-08-16T00:54:13.906Z,24.22
2016-08-16T00:54:23.905Z,24.2
2016-08-16T00:54:33.898Z,24.15
2016-08-16T00:54:43.899Z,24.15
2016-08-16T00:54:53.894Z,24.15
2016-08-16T00:55:03.892Z,24.12
2016-08-16T00:55:13.895Z,24.2
2016-08-16T00:55:23.894Z,24.18
2016-08-16T00:55:33.889Z,24.18
2016-08-16T00:55:43.887Z,24.18
2016-08-16T00:55:53.885Z,24.16
2016-08-16T00:56:03.884Z,24.21
2016-08-16T00:56:13.883Z,24.22
2016-08-16T00:56:23.884Z,24.18
2016-08-16T00:56:33.879Z,24.16
2016-08-16T00:56:43.875Z,24.2
2016-08-16T00:56:53.150Z,24.18
2016-08-16T00:57:03.873Z,24.18
2016-08-16T00:57:13.869Z,24.24
2016-08-16T00:57:23.869Z,24.13
2016-08-16T00:57:33.865Z,24.3
2016-08-16T00:57:43.865Z,24.25
2016-08-16T00:57:53.861Z,24.27
2016-08-16T00:58:03.861Z,24.22
2016-08-16T00:58:13.865Z,24.22
2016-08-16T00:58:23.862Z,24.27
2016-08-16T00:58:33.852Z,24.2
2016-08-16T00:58:43.852Z,24.16
2016-08-16T00:58:53.850Z,24.18
2016-08-16T00:59:03.847Z,24.18
2016-08-16T00:59:13.847Z,24.16
2016-08-16T00:59:23.846Z,24.21
2016-08-16T00:59:33.844Z,24.3
2016-08-16T00:59:43.843Z,24.21
2016-08-16T00:59:53.840Z,24.21
2016-08-16T01:00:03.840Z,24.27
2016-08-16T01:00:13.833Z,24.25
2016-08-16T01:00:23.835Z,24.21
2016-08-16T01:00:33.833Z,24.24
2016-08-16T01:00:43.102Z,24.27
2016-08-16T01:00:53.830Z,24.3
2016-08-16T01:01:03.825Z,24.22
2016-08-16T01:01:13.823Z,24.21
2016-08-16T01:01:23.824Z,24.27
2016-08-16T01:01:33.822Z,24.25
2016-08-16T01:01:43.817Z,24.16
2016-08-16T01:01:53.818Z,24.2
2016-08-16T01:02:03.814Z,24.21
2016-08-16T01:02:13.086Z,24.18
2016-08-16T01:02:23.811Z,24.24
2016-08-16T01:02:33.810Z,24.16
2016-08-16T01:02:43.808Z,24.28
2016-08-16T01:02:53.803Z,24.2
2016-08-16T01:03:03.811Z,24.2
2016-08-16T01:03:13.804Z,24.22
2016-08-16T01:03:23.800Z,24.25
2016-08-16T01:03:33.797Z,24.21
2016-08-16T01:03:43.794Z,24.28
2016-08-16T01:03:53.796Z,24.15
2016-08-16T01:04:03.792Z,24.27
2016-08-16T01:04:13.792Z,24.21
2016-08-16T01:04:23.792Z,24.16
2016-08-16T01:04:33.789Z,24.13
2016-08-16T01:04:43.785Z,24.21
2016-08-16T01:04:53.780Z,24.18
2016-08-16T01:05:03.783Z,24.24
2016-08-16T01:05:13.781Z,24.27
2016-08-16T01:05:23.776Z,24.21
2016-08-16T01:05:33.772Z,24.21
2016-08-16T01:05:43.775Z,24.3
2016-08-16T01:05:53.773Z,24.13
2016-08-16T01:06:03.767Z,24.22
2016-08-16T01:06:13.775Z,24.15
2016-08-16T01:06:23.033Z,24.21
2016-08-16T01:06:33.765Z,24.27
2016-08-16T01:06:43.765Z,24.2
2016-08-16T01:06:53.758Z,24.13
2016-08-16T01:07:03.761Z,24.24
2016-08-16T01:07:13.755Z,24.24
2016-08-16T01:07:23.756Z,24.24
2016-08-16T01:07:33.754Z,24.18
2016-08-16T01:07:43.751Z,24.31
2016-08-16T01:07:53.749Z,24.21
2016-08-16T01:08:03.752Z,24.24
2016-08-16T01:08:13.747Z,24.27
2016-08-16T01:08:23.742Z,24.3
2016-08-16T01:08:33.739Z,24.25
2016-08-16T01:08:43.011Z,24.15
2016-08-16T01:08:53.735Z,24.15
2016-08-16T01:09:03.738Z,24.31
2016-08-16T01:09:13.733Z,24.13
2016-08-16T01:09:23.004Z,24.15
2016-08-16T01:09:33.739Z,24.3
2016-08-16T01:09:43.727Z,24.13
2016-08-16T01:09:53.731Z,24.21
2016-08-16T01:10:03.732Z,24.2
2016-08-16T01:10:13.726Z,24.15
2016-08-16T01:10:23.723Z,24.27
2016-08-16T01:10:33.720Z,24.2
2016-08-16T01:10:43.716Z,24.24
2016-08-16T01:10:53.715Z,24.25
2016-08-16T01:11:03.712Z,24.25
2016-08-16T01:11:13.717Z,24.27
2016-08-16T01:11:23.712Z,24.21
2016-08-16T01:11:33.705Z,24.22
2016-08-16T01:11:43.705Z,24.25
2016-08-16T01:11:53.704Z,24.27
2016-08-16T01:12:03.704Z,24.3
2016-08-16T01:12:13.698Z,24.18
2016-08-16T01:12:23.700Z,24.2
2016-08-16T01:12:33.696Z,24.25
2016-08-16T01:12:43.693Z,24.21
2016-08-16T01:12:53.693Z,24.25
2016-08-16T01:13:03.902Z,24.21
2016-08-16T01:13:13.688Z,24.2
2016-08-16T01:13:23.687Z,24.22
2016-08-16T01:13:32.957Z,24.27
2016-08-16T01:13:43.684Z,24.25
2016-08-16T01:13:53.680Z,24.22
2016-08-16T01:14:03.682Z,24.24
2016-08-16T01:14:13.679Z,24.24
2016-08-16T01:14:23.676Z,24.25
2016-08-16T01:14:33.680Z,24.25
2016-08-16T01:14:43.675Z,24.25
2016-08-16T01:14:53.680Z,24.25
2016-08-16T01:15:03.666Z,24.21
2016-08-16T01:15:13.665Z,24.21
2016-08-16T01:15:23.662Z,24.21
2016-08-16T01:15:33.662Z,24.16
2016-08-16T01:15:43.660Z,24.13
2016-08-16T01:15:53.658Z,24.25
2016-08-16T01:16:03.656Z,24.24
2016-08-16T01:16:13.655Z,24.2
2016-08-16T01:16:22.924Z,24.18
2016-08-16T01:16:33.653Z,24.22
2016-08-16T01:16:43.651Z,24.2
2016-08-16T01:16:53.648Z,24.15
2016-08-16T01:17:03.645Z,24.13
2016-08-16T01:17:13.641Z,24.16
2016-08-16T01:17:23.641Z,24.24
2016-08-16T01:17:33.638Z,24.15
2016-08-16T01:17:43.637Z,24.24
2016-08-16T01:17:53.635Z,24.13
2016-08-16T01:18:03.632Z,24.12
2016-08-16T01:18:13.632Z,24.18
2016-08-16T01:18:23.631Z,24.18
2016-08-16T01:18:33.629Z,24.18
2016-08-16T01:18:43.626Z,24.22
2016-08-16T01:18:53.621Z,24.18
2016-08-16T01:19:03.623Z,24.13
2016-08-16T01:19:13.620Z,24.22
2016-08-16T01:19:23.614Z,24.1
2016-08-16T01:19:33.618Z,24.25
2016-08-16T01:19:43.614Z,24.18
2016-08-16T01:19:53.616Z,24.27
2016-08-16T01:20:03.613Z,24.24
2016-08-16T01:20:13.607Z,24.15
2016-08-16T01:20:23.605Z,24.13
2016-08-16T01:20:33.604Z,24.13
2016-08-16T01:20:43.602Z,24.22
2016-08-16T01:20:53.602Z,24.22
2016-08-16T01:21:03.599Z,24.16
2016-08-16T01:21:13.600Z,24.15
2016-08-16T01:21:23.596Z,24.24
2016-08-16T01:21:33.595Z,24.21
2016-08-16T01:21:43.595Z,24.21
2016-08-16T01:21:53.596Z,24.1
2016-08-16T01:22:03.587Z,24.18
2016-08-16T01:22:13.592Z,24.2
2016-08-16T01:22:23.587Z,24.13
2016-08-16T01:22:33.579Z,24.21
2016-08-16T01:22:43.580Z,24.12
2016-08-16T01:22:53.581Z,24.13
2016-08-16T01:23:03.586Z,24.16
2016-08-16T01:23:13.574Z,24.15
2016-08-16T01:23:23.574Z,24.12
2016-08-16T01:23:33.572Z,24.16
2016-08-16T01:23:43.568Z,24.2
2016-08-16T01:23:53.573Z,24.13
2016-08-16T01:24:03.565Z,24.15
2016-08-16T01:24:13.565Z,24.2
2016-08-16T01:24:22.839Z,24.13
2016-08-16T01:24:33.565Z,24.09
2016-08-16T01:24:43.560Z,24.13
2016-08-16T01:24:52.826Z,24.13
2016-08-16T01:25:03.556Z,24.1
2016-08-16T01:25:13.554Z,24.16
2016-08-16T01:25:23.549Z,24.16
2016-08-16T01:25:32.826Z,24.12
2016-08-16T01:25:43.571Z,24.15
2016-08-16T01:25:53.551Z,24.18
2016-08-16T01:26:03.545Z,24.12
2016-08-16T01:26:13.542Z,24.18
2016-08-16T01:26:23.539Z,24.13
2016-08-16T01:26:33.538Z,24.13
2016-08-16T01:26:43.535Z,24.1
2016-08-16T01:26:53.533Z,24.2
2016-08-16T01:27:03.530Z,24.18
2016-08-16T01:27:13.531Z,24.21
2016-08-16T01:27:23.529Z,24.13
2016-08-16T01:27:33.528Z,24.15
2016-08-16T01:27:43.523Z,24.12
2016-08-16T01:27:53.523Z,24.13
2016-08-16T01:28:03.518Z,24.21
2016-08-16T01:28:13.516Z,24.18
2016-08-16T01:28:23.520Z,24.13
2016-08-16T01:28:33.517Z,24.16
2016-08-16T01:28:43.514Z,24.15
2016-08-16T01:28:53.510Z,24.16
2016-08-16T01:29:03.516Z,24.16
2016-08-16T01:29:13.507Z,24.2
2016-08-16T01:29:23.504Z,24.24
2016-08-16T01:29:33.502Z,24.2
2016-08-16T01:29:43.505Z,24.13
2016-08-16T01:29:53.500Z,24.18
2016-08-16T01:30:03.498Z,24.2
2016-08-16T01:30:13.498Z,24.27
2016-08-16T01:30:23.498Z,24.22
2016-08-16T01:30:33.492Z,24.18
2016-08-16T01:30:43.489Z,24.2
2016-08-16T01:30:53.490Z,24.2
2016-08-16T01:31:03.486Z,24.24
2016-08-16T01:31:13.484Z,24.21
2016-08-16T01:31:23.483Z,24.16
2016-08-16T01:31:33.481Z,24.16
2016-08-16T01:31:43.481Z,24.16
2016-08-16T01:31:53.476Z,24.18
2016-08-16T01:32:03.475Z,24.16
2016-08-16T01:32:13.482Z,24.13
2016-08-16T01:32:23.471Z,24.16
2016-08-16T01:32:33.470Z,24.2
2016-08-16T01:32:43.471Z,24.18
2016-08-16T01:32:53.467Z,24.22
2016-08-16T01:33:03.465Z,24.21
2016-08-16T01:33:13.463Z,24.18
2016-08-16T01:33:23.462Z,24.18
2016-08-16T01:33:33.460Z,24.15
2016-08-16T01:33:43.454Z,24.24
2016-08-16T01:33:53.461Z,24.25
2016-08-16T01:34:03.456Z,24.12
2016-08-16T01:34:13.450Z,24.16
2016-08-16T01:34:23.451Z,24.22
2016-08-16T01:34:33.455Z,24.24
2016-08-16T01:34:43.445Z,24.24
2016-08-16T01:34:53.442Z,24.18
2016-08-16T01:35:03.444Z,24.16
2016-08-16T01:35:13.438Z,24.18
2016-08-16T01:35:22.706Z,24.13
2016-08-16T01:35:33.438Z,24.15
2016-08-16T01:35:43.445Z,24.18
2016-08-16T01:35:53.434Z,24.21
2016-08-16T01:36:03.431Z,24.18
2016-08-16T01:36:13.428Z,24.2
2016-08-16T01:36:23.430Z,24.18
2016-08-16T01:36:33.425Z,24.22
2016-08-16T01:36:42.695Z,24.12
2016-08-16T01:36:53.419Z,24.18
2016-08-16T01:37:03.426Z,24.15
2016-08-16T01:37:12.689Z,24.18
2016-08-16T01:37:23.417Z,24.21
2016-08-16T01:37:33.412Z,24.16
2016-08-16T01:37:43.414Z,24.22
2016-08-16T01:37:53.410Z,24.16
2016-08-16T01:38:03.406Z,24.18
2016-08-16T01:38:13.406Z,24.15
2016-08-16T01:38:23.403Z,24.13
2016-08-16T01:38:32.676Z,24.13
2016-08-16T01:38:43.400Z,24.22
2016-08-16T01:38:53.405Z,24.15
2016-08-16T01:39:03.399Z,24.12
2016-08-16T01:39:13.395Z,24.2
2016-08-16T01:39:23.390Z,24.13
2016-08-16T01:39:33.390Z,24.15
2016-08-16T01:39:43.390Z,24.28
2016-08-16T01:39:53.387Z,24.2
2016-08-16T01:40:03.387Z,24.16
2016-08-16T01:40:13.384Z,24.21
2016-08-16T01:40:23.382Z,24.16
2016-08-16T01:40:33.379Z,24.15
2016-08-16T01:40:43.382Z,24.2
2016-08-16T01:40:53.377Z,24.16
2016-08-16T01:41:03.373Z,24.21
2016-08-16T01:41:13.372Z,24.13
2016-08-16T01:41:23.376Z,24.15
2016-08-16T01:41:33.366Z,24.15
2016-08-16T01:41:43.366Z,24.13
2016-08-16T01:41:53.363Z,24.2
2016-08-16T01:42:03.364Z,24.2
2016-08-16T01:42:13.363Z,24.18
2016-08-16T01:42:23.358Z,24.16
2016-08-16T01:42:33.357Z,24.22
2016-08-16T01:42:43.355Z,24.18
2016-08-16T01:42:53.351Z,24.28
2016-08-16T01:43:03.351Z,24.18
2016-08-16T01:43:13.348Z,24.16
2016-08-16T01:43:23.346Z,24.13
2016-08-16T01:43:33.345Z,24.1
2016-08-16T01:43:43.342Z,24.2
2016-08-16T01:43:53.340Z,24.15
2016-08-16T01:44:03.341Z,24.21
2016-08-16T01:44:13.336Z,24.13
2016-08-16T01:44:23.338Z,24.12
2016-08-16T01:44:33.333Z,24.18
2016-08-16T01:44:43.332Z,24.13
2016-08-16T01:44:53.329Z,24.16
2016-08-16T01:45:03.333Z,24.18
2016-08-16T01:45:13.328Z,24.13
2016-08-16T01:45:23.324Z,24.18
2016-08-16T01:45:33.321Z,24.2
2016-08-16T01:45:43.319Z,24.15
2016-08-16T01:45:53.316Z,24.13
2016-08-16T01:46:03.317Z,24.15
2016-08-16T01:46:13.322Z,24.09
2016-08-16T01:46:22.583Z,24.15
2016-08-16T01:46:33.311Z,24.2
2016-08-16T01:46:43.308Z,24.12
2016-08-16T01:46:53.319Z,24.22
2016-08-16T01:47:03.307Z,24.12
2016-08-16T01:47:13.306Z,24.1
2016-08-16T01:47:23.302Z,24.12
2016-08-16T01:47:33.308Z,24.08
2016-08-16T01:47:43.295Z,24.1
2016-08-16T01:47:53.298Z,24.18
2016-08-16T01:48:03.294Z,24.1
2016-08-16T01:48:13.294Z,24.1
2016-08-16T01:48:23.299Z,24.13
2016-08-16T01:48:33.289Z,24.1
2016-08-16T01:48:43.284Z,24.15
2016-08-16T01:48:53.287Z,24.15
2016-08-16T01:49:03.281Z,24.08
2016-08-16T01:49:13.281Z,24.09
2016-08-16T01:49:23.280Z,24.08
2016-08-16T01:49:33.280Z,24.15
2016-08-16T01:49:43.277Z,24.12
2016-08-16T01:49:53.276Z,24.12
2016-08-16T01:50:03.272Z,24.12
2016-08-16T01:50:13.273Z,24.12
2016-08-16T01:50:23.267Z,24.1
2016-08-16T01:50:33.266Z,24.08
2016-08-16T01:50:43.267Z,24.1
2016-08-16T01:50:52.535Z,24.16
2016-08-16T01:51:02.533Z,24.12
2016-08-16T01:51:13.266Z,24.08
2016-08-16T01:51:22.530Z,24.18
2016-08-16T01:51:33.255Z,24.09
2016-08-16T01:51:43.254Z,24.12
2016-08-16T01:51:53.256Z,24.08
2016-08-16T01:52:02.519Z,24.1
2016-08-16T01:52:13.247Z,24.12
2016-08-16T01:52:23.246Z,24.09
2016-08-16T01:52:33.246Z,24.13
2016-08-16T01:52:43.243Z,24.1
2016-08-16T01:52:53.239Z,24.13
2016-08-16T01:53:03.242Z,24.1
2016-08-16T01:53:13.238Z,24.08
2016-08-16T01:53:23.235Z,24.03
2016-08-16T01:53:33.233Z,24.08
2016-08-16T01:53:43.228Z,24.13
2016-08-16T01:53:53.232Z,24.12
2016-08-16T01:54:03.228Z,24.12
2016-08-16T01:54:13.225Z,24.06
2016-08-16T01:54:23.226Z,24.09
2016-08-16T01:54:33.223Z,24.09
2016-08-16T01:54:43.243Z,24.13
2016-08-16T01:54:53.216Z,24.12
2016-08-16T01:55:03.217Z,24.08
2016-08-16T01:55:13.213Z,24.18
2016-08-16T01:55:23.210Z,24.08
2016-08-16T01:55:33.209Z,24.06
2016-08-16T01:55:43.206Z,24.06
2016-08-16T01:55:53.214Z,24.03
2016-08-16T01:56:03.202Z,24.03
2016-08-16T01:56:13.206Z,24.08
2016-08-16T01:56:23.200Z,24.06
2016-08-16T01:56:33.197Z,24.08
2016-08-16T01:56:43.196Z,24.09
2016-08-16T01:56:53.198Z,24.13
2016-08-16T01:57:03.192Z,24.1
2016-08-16T01:57:13.196Z,24.09
2016-08-16T01:57:23.187Z,24.03
2016-08-16T01:57:33.186Z,24.08
2016-08-16T01:57:43.187Z,24.05
2016-08-16T01:57:53.185Z,24.05
2016-08-16T01:58:03.188Z,24.1
2016-08-16T01:58:13.182Z,24.1
2016-08-16T01:58:23.176Z,24.08
2016-08-16T01:58:33.174Z,24.13
2016-08-16T01:58:43.177Z,24.1
2016-08-16T01:58:53.171Z,24.13
2016-08-16T01:59:03.170Z,24.09
2016-08-16T01:59:13.174Z,24.1
2016-08-16T01:59:23.166Z,24.1
2016-08-16T01:59:33.163Z,24.08
2016-08-16T01:59:43.166Z,24.12
2016-08-16T01:59:53.168Z,24.12
2016-08-16T02:00:03.166Z,24.1
2016-08-16T02:00:13.165Z,24.1
2016-08-16T02:00:23.152Z,24.09
2016-08-16T02:00:33.157Z,24.12
2016-08-16T02:00:43.148Z,24.12
2016-08-16T02:00:53.149Z,24.1
2016-08-16T02:01:03.146Z,24.1
2016-08-16T02:01:13.148Z,24.1
2016-08-16T02:01:23.141Z,24.1
2016-08-16T02:01:33.142Z,24.09
2016-08-16T02:01:43.139Z,24.06
2016-08-16T02:01:53.138Z,24.1
2016-08-16T02:02:03.135Z,24.06
2016-08-16T02:02:13.133Z,24.08
2016-08-16T02:02:23.136Z,24.05
2016-08-16T02:02:33.128Z,24.13
2016-08-16T02:02:43.128Z,24.06
2016-08-16T02:02:53.125Z,24.1
2016-08-16T02:03:03.127Z,24.1
2016-08-16T02:03:13.122Z,24.06
2016-08-16T02:03:23.119Z,24.12
2016-08-16T02:03:33.120Z,24.18
2016-08-16T02:03:43.119Z,24.08
2016-08-16T02:03:53.115Z,24.12
2016-08-16T02:04:02.388Z,24.09
2016-08-16T02:04:13.116Z,24.08
2016-08-16T02:04:23.112Z,24.13
2016-08-16T02:04:33.109Z,24.1
2016-08-16T02:04:43.117Z,24.06
2016-08-16T02:04:53.112Z,24.06
2016-08-16T02:05:03.101Z,24.1
2016-08-16T02:05:13.105Z,24.1
2016-08-16T02:05:23.103Z,24.13
2016-08-16T02:05:33.103Z,24.1
2016-08-16T02:05:43.092Z,24.16
2016-08-16T02:05:53.093Z,24.1
2016-08-16T02:06:03.089Z,24.1
2016-08-16T02:06:13.092Z,24.09
2016-08-16T02:06:23.089Z,24.06
2016-08-16T02:06:33.084Z,24.06
2016-08-16T02:06:42.356Z,24.08
2016-08-16T02:06:53.079Z,24.12
2016-08-16T02:07:03.082Z,24.12
2016-08-16T02:07:13.076Z,24.12
2016-08-16T02:07:23.072Z,24.1
2016-08-16T02:07:33.073Z,24.1
2016-08-16T02:07:43.070Z,24.05
2016-08-16T02:07:53.071Z,24.08
2016-08-16T02:08:03.068Z,24.09
2016-08-16T02:08:12.336Z,24.13
2016-08-16T02:08:23.063Z,24.09
2016-08-16T02:08:33.063Z,24.1
2016-08-16T02:08:43.058Z,24.1
2016-08-16T02:08:53.057Z,24.06
2016-08-16T02:09:03.055Z,24.05
2016-08-16T02:09:13.053Z,24.1
2016-08-16T02:09:23.055Z,24.08
2016-08-16T02:09:33.051Z,24.13